Wilmington, OH

9:24 AM EST on February 27, 2015 (GMT -0500)
Dayton-Wright Brothers | Change Station
CLOSE
Current Station
Airport
Location: Dayton Wright,
Elevation: 961 ft
Nearby Weather Stations

Elev 961 ft 39.59 °N, 84.22 °W | Updated 31 minutes ago

Overcast
Overcast
7 °F
Feels Like 0 °F
N
4
Wind Variable Wind from WNW

Today
High -- | Low -- °F
--% Chance of Precip.
Yesterday
High -- | Low -- °F
Precip. -- in
7:11 AM 6:25 PM
Waxing Gibbous, 69% visible
Pressure 30.57 in
Visibility 10.0 miles
Clouds Clear
Windchill 0 °F
Dew Point 0 °F
Humidity 73%
Rainfall 0.00 in
Snow Depth Not available.
UV 1 out of 12
Pollen .60 out of 12
Air Quality Not available.
Flu Activity Not available.
METAR KMGY 271353Z AUTO 29003KT 10SM CLR M14/M18 A3051 RMK AO2 SLP351 T11391178

More Conditions Fewer Conditions

Pressure 30.57 in
Visibility 10.0 miles
Clouds Clear
Windchill 0 °F
Dew Point 0 °F
Humidity 73%
Rainfall 0.00 in
Snow Depth Not available.
UV 1 out of 12
Pollen .60 out of 12
Air Quality Not available.
Flu Activity Not available.
METAR KMGY 271353Z AUTO 29003KT 10SM CLR M14/M18 A3051 RMK AO2 SLP351 T11391178

More Conditions Fewer Conditions

10-Day Weather Forecast

Almanac

Astronomy

Feb. 27, 2015 Rise Set
Actual Time
Civil Twilight
Nautical Twilight
Astronomical Twilight
Moon
Length of Visible Light
Length of Day
Tomorrow will be .
, % of the Moon is Illuminated

Today's Extremes

State Highs State Lows

Community

WunderPhotos

Upload Photos

1,800,683 photos uploaded!

WunderBlogs® & News

Nearby

Air Quality

  Air Quality AQ Index Pollutant
Not available.

Snow Depth

Station Depth Elevation

Earthquake Activity

City Distance Mag. Time & Date
Minimum magnitude displayed is 2.5.

Coastal Water Temperatures

Place Temperature

Nearby Weather Stations